Time;durP1;ratioP1;P1;durP2;ratioP2;P2;SDS_P1;SDS_P2;PMS_P1;PMS_P2;Temp;Humidity;BMP_temperature;BMP_pressure;BME280_temperature;BME280_humidity;BME280_pressure;Samples;Min_cycle;Max_cycle;Signal;HPM_P1;HPM_P2
2023/03/29 00:00:34;;;;;;;;;;;15.90;59.20;;;;;;10114390;28;93554;-65
2023/03/29 00:05:37;;;;;;;;;;;15.90;59.10;;;;;;10131939;28;94140;-65
2023/03/29 00:10:40;;;;;;;;;;;15.90;59.10;;;;;;10130959;28;94352;-65
2023/03/29 00:15:41;;;;;;;;;;;15.90;59.10;;;;;;10132693;28;92344;-64
2023/03/29 00:20:44;;;;;;;;;;;15.90;59.10;;;;;;10113089;28;93551;-65
2023/03/29 00:25:45;;;;;;;;;;;15.80;59.10;;;;;;10130874;28;93331;-64
2023/03/29 00:30:49;;;;;;;;;;;15.80;59.10;;;;;;10127999;28;95966;-65
2023/03/29 00:35:52;;;;;;;;;;;15.80;59.10;;;;;;10130447;28;93619;-64
2023/03/29 00:40:54;;;;;;;;;;;15.80;59.20;;;;;;10130086;28;93459;-62
2023/03/29 00:45:55;;;;;;;;;;;15.80;59.10;;;;;;10129743;28;93686;-65
2023/03/29 00:51:00;;;;;;;;;;;15.80;59.20;;;;;;10129658;28;94243;-65
2023/03/29 00:56:06;;;;;;;;;;;15.80;59.10;;;;;;10130372;28;94411;-65
2023/03/29 01:01:12;;;;;;;;;;;15.80;59.00;;;;;;10130090;28;92635;-65
2023/03/29 01:06:16;;;;;;;;;;;15.80;59.00;;;;;;10113313;28;92638;-64
2023/03/29 01:11:23;;;;;;;;;;;15.80;59.00;;;;;;10130411;28;94480;-66
2023/03/29 01:16:27;;;;;;;;;;;15.80;59.00;;;;;;10128899;28;93418;-65
2023/03/29 01:21:36;;;;;;;;;;;15.80;59.00;;;;;;10126345;28;96828;-65
2023/03/29 01:26:41;;;;;;;;;;;15.80;59.00;;;;;;10128964;28;93286;-65
2023/03/29 01:31:46;;;;;;;;;;;15.80;59.00;;;;;;10129862;28;94354;-65
2023/03/29 01:36:59;;;;;;;;;;;15.70;59.10;;;;;;10128590;28;94672;-65
2023/03/29 01:42:06;;;;;;;;;;;15.70;58.90;;;;;;10128318;28;94729;-65
2023/03/29 01:47:12;;;;;;;;;;;15.70;59.10;;;;;;10127411;28;93436;-65
2023/03/29 01:52:15;;;;;;;;;;;15.70;59.10;;;;;;10127125;28;94496;-65
2023/03/29 01:57:18;;;;;;;;;;;15.70;59.00;;;;;;10128437;28;92738;-65
2023/03/29 02:02:22;;;;;;;;;;;15.70;59.00;;;;;;10126090;28;94373;-63
2023/03/29 02:07:25;;;;;;;;;;;15.70;59.10;;;;;;10127417;28;93515;-65
2023/03/29 02:12:27;;;;;;;;;;;15.70;59.10;;;;;;10124922;28;95395;-65
2023/03/29 02:17:29;;;;;;;;;;;15.70;58.90;;;;;;10128122;28;94441;-64
2023/03/29 02:22:35;;;;;;;;;;;15.80;59.00;;;;;;10126874;28;93952;-65
2023/03/29 02:27:38;;;;;;;;;;;15.80;58.90;;;;;;10126328;28;93806;-64
2023/03/29 02:32:39;;;;;;;;;;;15.80;58.90;;;;;;10126507;28;93512;-65
2023/03/29 02:37:43;;;;;;;;;;;15.80;59.00;;;;;;10125845;28;93567;-65
2023/03/29 02:42:45;;;;;;;;;;;15.80;59.00;;;;;;10129117;28;93159;-66
2023/03/29 02:47:50;;;;;;;;;;;15.80;59.00;;;;;;10133704;28;93880;-66
2023/03/29 02:52:54;;;;;;;;;;;15.70;58.90;;;;;;10132721;28;93852;-66
2023/03/29 02:57:56;;;;;;;;;;;15.70;59.00;;;;;;10132752;28;93550;-66
2023/03/29 03:02:58;;;;;;;;;;;15.70;59.00;;;;;;10130938;28;96826;-66
2023/03/29 03:08:03;;;;;;;;;;;15.70;58.90;;;;;;10133233;28;93492;-66
2023/03/29 03:13:05;;;;;;;;;;;15.70;58.90;;;;;;10132671;28;93005;-65
2023/03/29 03:18:11;;;;;;;;;;;15.70;58.80;;;;;;10131607;28;93190;-64
2023/03/29 03:23:13;;;;;;;;;;;15.60;58.70;;;;;;10115559;28;94561;-65
2023/03/29 03:28:15;;;;;;;;;;;15.60;58.90;;;;;;10133193;28;94558;-65
2023/03/29 03:33:18;;;;;;;;;;;15.60;58.80;;;;;;10132568;28;94385;-65
2023/03/29 03:38:19;;;;;;;;;;;15.60;59.00;;;;;;10132809;28;93641;-65
2023/03/29 03:43:21;;;;;;;;;;;15.60;59.10;;;;;;10131959;28;93891;-65
2023/03/29 05:07:01;;;;;;;;;;;16.30;58.20;;;;;;10046179;29;93168;-63
2023/03/29 05:12:03;;;;;;;;;;;16.40;58.40;;;;;;10033460;29;94684;-61
2023/03/29 05:17:05;;;;;;;;;;;16.50;58.60;;;;;;10032265;29;93331;-61
2023/03/29 05:22:07;;;;;;;;;;;16.70;58.60;;;;;;10049095;29;93689;-62
2023/03/29 05:27:09;;;;;;;;;;;16.90;58.40;;;;;;10030605;29;92788;-62
2023/03/29 05:32:12;;;;;;;;;;;17.00;57.90;;;;;;10048944;29;95655;-63
2023/03/29 05:37:14;;;;;;;;;;;17.10;57.70;;;;;;10032682;29;92755;-62
2023/03/29 05:42:21;;;;;;;;;;;17.10;57.70;;;;;;10049717;29;93417;-62
2023/03/29 05:47:23;;;;;;;;;;;17.00;57.60;;;;;;10043783;29;94488;-62
2023/03/29 05:52:25;;;;;;;;;;;17.00;57.80;;;;;;9991201;29;97510;-62
2023/03/29 05:57:27;;;;;;;;;;;16.90;57.90;;;;;;10009640;29;94728;-62
2023/03/29 06:02:28;;;;;;;;;;;16.80;58.10;;;;;;10008921;29;93319;-62
2023/03/29 06:07:30;;;;;;;;;;;16.70;58.20;;;;;;9986816;29;93536;-62
2023/03/29 06:12:32;;;;;;;;;;;16.60;58.30;;;;;;9971004;29;94612;-62
2023/03/29 06:17:34;;;;;;;;;;;16.60;58.50;;;;;;9971964;29;93547;-62
2023/03/29 06:22:40;;;;;;;;;;;16.50;58.70;;;;;;9977632;29;93529;-63
2023/03/29 06:27:41;;;;;;;;;;;16.40;58.90;;;;;;9978011;29;92209;-62
2023/03/29 06:32:44;;;;;;;;;;;16.40;59.00;;;;;;9976754;29;94473;-61
2023/03/29 06:37:48;;;;;;;;;;;16.30;59.10;;;;;;9960668;29;93503;-62
2023/03/29 06:42:56;;;;;;;;;;;16.30;59.10;;;;;;9975019;29;96902;-62
2023/03/29 06:47:58;;;;;;;;;;;16.30;59.20;;;;;;9975682;29;93770;-62
2023/03/29 06:53:00;;;;;;;;;;;16.20;59.20;;;;;;9960450;29;93747;-62
2023/03/29 06:58:03;;;;;;;;;;;16.20;59.20;;;;;;9976485;29;94618;-62
2023/03/29 07:03:06;;;;;;;;;;;16.20;59.30;;;;;;9975877;29;94456;-62
2023/03/29 07:13:14;;;;;;;;;;;16.10;59.40;;;;;;9976088;29;94519;-62
2023/03/29 07:18:17;;;;;;;;;;;16.10;59.50;;;;;;9976369;29;92805;-62
2023/03/29 07:23:18;;;;;;;;;;;16.00;59.40;;;;;;9944082;29;95948;-62
2023/03/29 07:28:20;;;;;;;;;;;16.00;59.50;;;;;;9975340;29;94590;-63
2023/03/29 07:33:23;;;;;;;;;;;16.00;59.60;;;;;;9972514;29;97374;-62
2023/03/29 07:38:25;;;;;;;;;;;15.90;59.60;;;;;;9975888;29;94502;-63
2023/03/29 07:43:26;;;;;;;;;;;15.90;59.60;;;;;;9974906;29;93425;-63
2023/03/29 07:48:28;;;;;;;;;;;15.90;59.50;;;;;;9974589;29;93676;-62
2023/03/29 07:53:31;;;;;;;;;;;15.90;59.60;;;;;;9974340;29;93382;-62
2023/03/29 07:58:32;;;;;;;;;;;15.90;59.60;;;;;;9975107;29;93467;-63
2023/03/29 08:03:34;;;;;;;;;;;15.90;59.60;;;;;;9957564;29;94718;-62
2023/03/29 08:08:37;;;;;;;;;;;15.80;59.60;;;;;;9974638;29;92930;-63
2023/03/29 08:13:38;;;;;;;;;;;15.80;59.70;;;;;;9973243;29;94247;-63
2023/03/29 08:18:41;;;;;;;;;;;15.80;59.70;;;;;;9974081;29;93569;-63
2023/03/29 08:23:42;;;;;;;;;;;15.80;59.70;;;;;;9972208;29;99066;-62
2023/03/29 08:28:44;;;;;;;;;;;15.80;59.80;;;;;;9973552;29;93123;-62
2023/03/29 08:33:46;;;;;;;;;;;15.80;59.90;;;;;;9974181;29;93464;-63
2023/03/29 08:38:49;;;;;;;;;;;15.70;59.90;;;;;;9957056;29;94664;-63
2023/03/29 08:44:11;;;;;;;;;;;15.70;59.90;;;;;;9972716;29;93664;-63
2023/03/29 08:49:13;;;;;;;;;;;15.70;60.00;;;;;;9972733;29;93626;-62
2023/03/29 08:54:19;;;;;;;;;;;15.70;60.00;;;;;;9972863;29;94466;-62
2023/03/29 08:59:23;;;;;;;;;;;15.70;60.00;;;;;;9973076;29;92603;-63
2023/03/29 09:04:30;;;;;;;;;;;15.70;60.10;;;;;;9973077;29;94492;-63
2023/03/29 09:09:32;;;;;;;;;;;15.70;60.10;;;;;;9972387;29;93843;-63
2023/03/29 09:14:34;;;;;;;;;;;15.70;60.10;;;;;;9971057;29;95981;-62
2023/03/29 09:19:50;;;;;;;;;;;15.70;60.10;;;;;;9972270;29;92764;-62
2023/03/29 09:24:59;;;;;;;;;;;15.70;60.10;;;;;;9969837;29;93532;-63
2023/03/29 09:30:04;;;;;;;;;;;15.70;60.20;;;;;;9972145;29;93473;-63
2023/03/29 09:35:17;;;;;;;;;;;15.70;60.20;;;;;;9956180;29;93237;-62
2023/03/29 09:40:22;;;;;;;;;;;15.70;60.30;;;;;;9971266;29;94621;-62
2023/03/29 09:45:24;;;;;;;;;;;15.70;60.30;;;;;;9971673;29;93699;-62
2023/03/29 09:50:29;;;;;;;;;;;15.70;60.30;;;;;;9955677;29;93746;-63
2023/03/29 09:55:36;;;;;;;;;;;15.70;60.40;;;;;;9971558;29;93890;-63
2023/03/29 10:00:38;;;;;;;;;;;15.70;60.40;;;;;;9953923;29;94457;-62
2023/03/29 10:05:43;;;;;;;;;;;15.70;60.50;;;;;;9952023;29;96281;-63
2023/03/29 10:10:45;;;;;;;;;;;15.70;60.50;;;;;;9953577;29;93812;-63
2023/03/29 10:16:00;;;;;;;;;;;15.70;60.50;;;;;;9970393;29;95763;-62
2023/03/29 10:21:03;;;;;;;;;;;15.70;60.50;;;;;;9970310;29;93754;-61
2023/03/29 10:26:06;;;;;;;;;;;15.70;60.50;;;;;;9971210;29;94355;-61
2023/03/29 10:31:16;;;;;;;;;;;15.70;60.60;;;;;;9970535;29;96369;-62
2023/03/29 10:36:18;;;;;;;;;;;15.70;60.80;;;;;;9954119;29;93452;-61
2023/03/29 10:41:21;;;;;;;;;;;15.80;60.70;;;;;;9970011;29;92762;-61
2023/03/29 10:46:28;;;;;;;;;;;15.80;60.80;;;;;;9970172;29;93525;-62
2023/03/29 10:51:31;;;;;;;;;;;15.80;60.80;;;;;;9970503;29;94727;-62
2023/03/29 10:56:40;;;;;;;;;;;15.80;60.80;;;;;;9967422;29;96814;-62
2023/03/29 11:01:45;;;;;;;;;;;15.80;60.80;;;;;;9969931;29;94391;-62
2023/03/29 11:07:12;;;;;;;;;;;15.80;60.80;;;;;;9974615;29;113784;-62
2023/03/29 11:12:43;;;;;;;;;;;15.80;60.80;;;;;;9959362;29;93324;-61
2023/03/29 11:17:54;;;;;;;;;;;15.90;60.90;;;;;;9970918;29;94539;-62
2023/03/29 11:22:59;;;;;;;;;;;15.90;60.90;;;;;;9975508;29;93477;-62
2023/03/29 11:28:03;;;;;;;;;;;15.90;60.90;;;;;;9974774;29;93547;-63
2023/03/29 11:33:24;;;;;;;;;;;15.90;60.80;;;;;;9976622;29;93962;-62
2023/03/29 11:38:34;;;;;;;;;;;15.90;60.80;;;;;;9975355;29;93552;-62
2023/03/29 11:43:45;;;;;;;;;;;16.00;60.90;;;;;;9957857;29;93588;-62
2023/03/29 11:49:03;;;;;;;;;;;16.00;61.00;;;;;;9971877;29;96797;-62
2023/03/29 11:54:11;;;;;;;;;;;16.00;61.00;;;;;;9975188;29;94494;-62
2023/03/29 11:59:17;;;;;;;;;;;16.00;61.00;;;;;;9974549;29;93899;-62
2023/03/29 12:04:22;;;;;;;;;;;16.00;62.00;;;;;;9974454;29;93579;-62
2023/03/29 12:09:33;;;;;;;;;;;16.00;61.10;;;;;;9974218;29;93477;-62
2023/03/29 12:14:43;;;;;;;;;;;16.00;61.10;;;;;;9973407;29;93812;-62
2023/03/29 12:20:06;;;;;;;;;;;15.90;61.20;;;;;;9973542;29;92751;-62
2023/03/29 12:25:11;;;;;;;;;;;15.90;61.20;;;;;;9958460;29;92029;-63
2023/03/29 12:30:32;;;;;;;;;;;15.90;61.30;;;;;;9974557;29;94297;-63
2023/03/29 12:35:54;;;;;;;;;;;15.90;61.40;;;;;;9973415;29;94565;-63
2023/03/29 12:40:58;;;;;;;;;;;15.90;61.50;;;;;;9969907;29;96001;-62
2023/03/29 12:46:04;;;;;;;;;;;15.90;61.50;;;;;;9974407;29;93487;-62
2023/03/29 12:51:07;;;;;;;;;;;15.90;61.60;;;;;;9972408;29;93746;-62
2023/03/29 12:56:12;;;;;;;;;;;15.90;61.50;;;;;;9957068;29;94109;-63
2023/03/29 13:01:22;;;;;;;;;;;15.90;61.60;;;;;;9956147;29;93967;-63
2023/03/29 13:06:30;;;;;;;;;;;15.90;61.60;;;;;;9957104;29;94837;-63
2023/03/29 13:11:33;;;;;;;;;;;15.90;61.70;;;;;;9972089;29;93536;-63
2023/03/29 13:16:35;;;;;;;;;;;15.90;61.70;;;;;;9955952;29;92767;-62
2023/03/29 13:21:51;;;;;;;;;;;15.90;61.70;;;;;;9972271;29;94437;-62
2023/03/29 13:26:55;;;;;;;;;;;15.90;61.80;;;;;;9971394;29;94443;-62
2023/03/29 13:32:05;;;;;;;;;;;15.90;61.80;;;;;;9969658;29;96060;-62
2023/03/29 13:37:27;;;;;;;;;;;15.90;61.80;;;;;;9972091;29;95806;-62
2023/03/29 13:42:32;;;;;;;;;;;15.90;61.80;;;;;;9954439;29;93473;-62
2023/03/29 13:47:40;;;;;;;;;;;15.90;61.90;;;;;;9970903;29;93541;-63
2023/03/29 13:52:58;;;;;;;;;;;15.90;61.90;;;;;;9972303;29;95582;-62
2023/03/29 13:58:02;;;;;;;;;;;15.90;61.90;;;;;;9971141;29;93901;-62
2023/03/29 14:03:06;;;;;;;;;;;15.90;62.00;;;;;;9970943;29;93539;-62
2023/03/29 14:08:15;;;;;;;;;;;15.90;62.00;;;;;;9973163;29;93992;-62
2023/03/29 14:13:19;;;;;;;;;;;15.80;62.00;;;;;;9954483;29;93510;-61
2023/03/29 14:18:21;;;;;;;;;;;15.90;62.20;;;;;;9954005;29;94600;-62
2023/03/29 14:23:25;;;;;;;;;;;15.80;62.20;;;;;;9966702;29;96263;-62
2023/03/29 14:28:27;;;;;;;;;;;15.80;62.20;;;;;;9970510;29;93364;-63
2023/03/29 14:33:32;;;;;;;;;;;15.80;62.20;;;;;;9953717;29;93733;-63
2023/03/29 14:38:35;;;;;;;;;;;15.80;62.30;;;;;;9970044;29;93653;-63
2023/03/29 14:43:36;;;;;;;;;;;15.80;62.40;;;;;;9976604;29;93937;-62
2023/03/29 14:48:38;;;;;;;;;;;15.80;62.40;;;;;;9975114;29;93298;-62
2023/03/29 14:53:41;;;;;;;;;;;15.80;62.40;;;;;;9977288;29;94496;-62
2023/03/29 14:58:45;;;;;;;;;;;15.70;62.50;;;;;;9977139;29;93117;-62
2023/03/29 15:04:07;;;;;;;;;;;15.70;62.50;;;;;;9959547;29;93383;-62
2023/03/29 15:09:15;;;;;;;;;;;15.70;62.60;;;;;;9975430;29;93614;-62
2023/03/29 15:14:18;;;;;;;;;;;15.70;62.50;;;;;;9956738;29;95751;-62
2023/03/29 15:19:20;;;;;;;;;;;15.70;62.50;;;;;;9975284;29;93252;-62
2023/03/29 15:24:29;;;;;;;;;;;15.90;62.40;;;;;;9976526;29;93414;-62
2023/03/29 15:29:35;;;;;;;;;;;16.20;62.00;;;;;;9974820;29;92797;-62
2023/03/29 15:34:37;;;;;;;;;;;16.50;61.50;;;;;;9975526;29;93601;-62
2023/03/29 15:39:42;;;;;;;;;;;16.80;60.90;;;;;;9992211;29;94034;-62
2023/03/29 15:44:44;;;;;;;;;;;17.00;60.50;;;;;;10011830;29;94004;-61
2023/03/29 15:49:46;;;;;;;;;;;17.20;60.40;;;;;;10010678;29;92801;-62
2023/03/29 15:54:48;;;;;;;;;;;17.30;60.20;;;;;;10011543;29;94375;-62
2023/03/29 15:59:50;;;;;;;;;;;17.40;60.50;;;;;;10012949;29;93898;-62
2023/03/29 16:04:52;;;;;;;;;;;17.40;60.60;;;;;;9993376;29;95708;-63
2023/03/29 16:09:53;;;;;;;;;;;17.50;61.80;;;;;;10013338;29;93623;-62
2023/03/29 16:14:55;;;;;;;;;;;17.70;63.10;;;;;;10012576;29;94377;-62
2023/03/29 16:19:57;;;;;;;;;;;17.90;62.80;;;;;;10012489;29;93547;-62
2023/03/29 16:24:59;;;;;;;;;;;18.00;65.90;;;;;;10009929;29;93258;-63
2023/03/29 16:30:00;;;;;;;;;;;18.10;65.00;;;;;;10010986;29;94219;-63
2023/03/29 16:35:03;;;;;;;;;;;18.20;64.20;;;;;;10011523;29;93577;-64
2023/03/29 16:40:06;;;;;;;;;;;18.30;62.90;;;;;;10011894;29;93109;-63
2023/03/29 16:45:10;;;;;;;;;;;18.50;62.40;;;;;;10009591;29;94683;-64
2023/03/29 16:50:14;;;;;;;;;;;18.60;62.30;;;;;;10011196;29;94055;-62
2023/03/29 16:55:17;;;;;;;;;;;18.70;62.60;;;;;;9976156;29;96273;-64
2023/03/29 17:00:20;;;;;;;;;;;18.70;62.10;;;;;;9972330;29;94638;-63
2023/03/29 17:05:22;;;;;;;;;;;18.70;62.80;;;;;;9972309;29;93664;-64
2023/03/29 17:10:24;;;;;;;;;;;18.60;63.80;;;;;;9956741;29;94461;-64
2023/03/29 17:15:26;;;;;;;;;;;18.60;63.00;;;;;;9972688;29;94036;-64
2023/03/29 17:20:27;;;;;;;;;;;18.60;63.20;;;;;;9970414;29;92958;-63
2023/03/29 17:25:29;;;;;;;;;;;18.50;63.60;;;;;;9972381;29;94108;-63
2023/03/29 17:30:32;;;;;;;;;;;18.40;64.00;;;;;;9955740;29;93707;-64
2023/03/29 17:35:34;;;;;;;;;;;18.20;64.20;;;;;;9970650;29;94502;-64
2023/03/29 17:40:36;;;;;;;;;;;18.10;64.70;;;;;;9969552;29;94613;-64
2023/03/29 17:45:37;;;;;;;;;;;18.00;64.90;;;;;;9968126;29;96031;-64
2023/03/29 17:50:39;;;;;;;;;;;17.90;65.00;;;;;;9969741;29;94556;-64
2023/03/29 17:55:41;;;;;;;;;;;17.90;65.00;;;;;;9970060;29;93710;-64
2023/03/29 18:00:43;;;;;;;;;;;17.90;65.00;;;;;;9966894;29;94372;-64
2023/03/29 18:05:44;;;;;;;;;;;17.90;64.70;;;;;;9997288;29;93490;-64
2023/03/29 18:10:46;;;;;;;;;;;18.00;64.70;;;;;;9997120;29;93509;-64
2023/03/29 18:15:53;;;;;;;;;;;18.10;64.40;;;;;;9984636;29;94470;-63
2023/03/29 18:20:54;;;;;;;;;;;18.10;64.30;;;;;;9989835;29;92337;-64
2023/03/29 18:26:01;;;;;;;;;;;18.10;64.20;;;;;;10006705;29;93453;-64
2023/03/29 18:31:03;;;;;;;;;;;18.10;64.40;;;;;;10006494;29;93495;-64
2023/03/29 18:36:06;;;;;;;;;;;18.10;64.40;;;;;;10002353;29;95792;-63
2023/03/29 18:41:13;;;;;;;;;;;18.00;64.70;;;;;;10005190;29;93559;-64
2023/03/29 18:46:15;;;;;;;;;;;18.00;65.00;;;;;;10006592;29;93909;-65
2023/03/29 18:51:17;;;;;;;;;;;18.00;64.70;;;;;;10006798;29;93233;-64
2023/03/29 18:56:20;;;;;;;;;;;18.00;64.70;;;;;;10007277;29;94590;-64
2023/03/29 19:01:21;;;;;;;;;;;17.90;64.60;;;;;;10006848;29;93460;-63
2023/03/29 19:06:23;;;;;;;;;;;17.90;66.40;;;;;;10006407;29;95076;-64
2023/03/29 19:11:25;;;;;;;;;;;17.90;66.20;;;;;;9973918;29;92612;-63
2023/03/29 19:16:29;;;;;;;;;;;17.90;65.70;;;;;;10003985;29;94004;-61
2023/03/29 19:21:31;;;;;;;;;;;17.90;65.50;;;;;;10013433;29;94582;-61
2023/03/29 19:26:33;;;;;;;;;;;17.90;65.30;;;;;;10011421;29;95255;-61
2023/03/29 19:31:36;;;;;;;;;;;17.90;65.10;;;;;;10013657;29;94268;-61
2023/03/29 19:36:38;;;;;;;;;;;17.80;65.00;;;;;;10013186;29;94827;-62
2023/03/29 19:41:40;;;;;;;;;;;17.80;65.00;;;;;;10012450;29;93704;-62
2023/03/29 19:46:42;;;;;;;;;;;17.80;66.10;;;;;;10012599;29;95191;-62
2023/03/29 19:51:44;;;;;;;;;;;17.80;65.30;;;;;;10012428;29;94632;-62
2023/03/29 19:56:47;;;;;;;;;;;17.70;65.10;;;;;;10004996;29;94294;-62
2023/03/29 20:01:52;;;;;;;;;;;17.70;65.20;;;;;;9996509;29;92716;-62
2023/03/29 20:06:56;;;;;;;;;;;17.60;65.20;;;;;;10013133;29;94798;-62
2023/03/29 20:11:57;;;;;;;;;;;17.60;65.30;;;;;;10012179;29;93458;-63
2023/03/29 20:16:59;;;;;;;;;;;17.50;65.30;;;;;;10010275;29;97006;-63
2023/03/29 20:22:02;;;;;;;;;;;17.50;65.60;;;;;;10012357;29;93781;-63
2023/03/29 20:27:03;;;;;;;;;;;17.40;65.70;;;;;;10012324;29;94318;-63
2023/03/29 20:32:05;;;;;;;;;;;17.40;65.90;;;;;;10012820;29;94524;-63
2023/03/29 20:37:07;;;;;;;;;;;17.40;65.90;;;;;;10011400;29;94519;-63
2023/03/29 20:42:10;;;;;;;;;;;17.30;66.00;;;;;;10010385;29;94024;-63
2023/03/29 20:47:12;;;;;;;;;;;17.30;66.00;;;;;;10010638;29;93307;-62
2023/03/29 20:52:21;;;;;;;;;;;17.30;66.10;;;;;;10010419;29;92764;-62
2023/03/29 20:57:23;;;;;;;;;;;17.20;66.10;;;;;;10011209;29;94741;-63
2023/03/29 21:02:25;;;;;;;;;;;17.20;66.00;;;;;;10010308;29;93695;-63
2023/03/29 21:07:27;;;;;;;;;;;17.10;66.00;;;;;;10007536;29;95270;-63
2023/03/29 21:12:29;;;;;;;;;;;17.10;66.00;;;;;;9993522;29;93701;-63
2023/03/29 21:17:30;;;;;;;;;;;17.10;66.00;;;;;;10009832;29;94489;-63
2023/03/29 21:22:32;;;;;;;;;;;17.00;66.00;;;;;;10009962;29;95425;-63
2023/03/29 21:27:35;;;;;;;;;;;17.00;66.00;;;;;;9994803;29;94545;-63
2023/03/29 21:32:37;;;;;;;;;;;17.00;66.00;;;;;;10011574;29;93797;-63
2023/03/29 21:37:39;;;;;;;;;;;16.90;66.00;;;;;;10010934;29;94542;-63
2023/03/29 21:42:41;;;;;;;;;;;16.90;66.00;;;;;;10011482;29;93703;-63
2023/03/29 21:47:44;;;;;;;;;;;16.90;66.00;;;;;;10009022;29;93936;-63
2023/03/29 21:52:46;;;;;;;;;;;16.90;66.00;;;;;;10010406;29;93489;-62
2023/03/29 21:57:48;;;;;;;;;;;16.90;66.00;;;;;;10006725;29;95889;-62
2023/03/29 22:02:50;;;;;;;;;;;16.80;66.00;;;;;;10009817;29;93589;-62
2023/03/29 22:07:52;;;;;;;;;;;16.80;66.00;;;;;;10009917;29;94534;-63
2023/03/29 22:12:55;;;;;;;;;;;16.80;66.00;;;;;;10010233;29;93603;-62
2023/03/29 22:17:59;;;;;;;;;;;16.80;66.00;;;;;;10010714;29;94005;-62
2023/03/29 22:23:00;;;;;;;;;;;16.80;66.00;;;;;;10009263;29;94066;-62
2023/03/29 22:28:02;;;;;;;;;;;16.70;65.90;;;;;;10009300;29;94245;-62
2023/03/29 22:33:04;;;;;;;;;;;16.80;66.00;;;;;;10010566;29;93605;-62
2023/03/29 22:38:06;;;;;;;;;;;16.70;66.00;;;;;;10009457;29;93405;-62
2023/03/29 22:43:08;;;;;;;;;;;16.70;66.00;;;;;;10008540;29;92963;-62
2023/03/29 22:48:09;;;;;;;;;;;16.70;65.90;;;;;;10004472;29;95858;-63
2023/03/29 22:53:11;;;;;;;;;;;16.70;66.00;;;;;;10007001;29;93489;-62
2023/03/29 22:58:13;;;;;;;;;;;16.70;66.00;;;;;;9991814;29;94300;-62
2023/03/29 23:03:15;;;;;;;;;;;16.60;65.90;;;;;;10015154;29;94379;-62
2023/03/29 23:08:17;;;;;;;;;;;16.60;65.90;;;;;;10014426;29;93281;-62
2023/03/29 23:13:22;;;;;;;;;;;16.60;65.90;;;;;;10014436;29;93030;-63
2023/03/29 23:18:25;;;;;;;;;;;16.60;65.90;;;;;;10014270;29;93515;-62
2023/03/29 23:23:27;;;;;;;;;;;16.60;66.90;;;;;;10015345;29;93186;-62
2023/03/29 23:28:30;;;;;;;;;;;16.60;65.90;;;;;;10014335;29;93654;-62
2023/03/29 23:33:33;;;;;;;;;;;16.60;65.90;;;;;;10013672;29;93411;-62
2023/03/29 23:38:37;;;;;;;;;;;16.60;65.90;;;;;;10012231;29;96658;-62
2023/03/29 23:43:40;;;;;;;;;;;16.50;65.90;;;;;;9997338;29;94749;-70
2023/03/29 23:48:45;;;;;;;;;;;16.50;65.90;;;;;;10013483;29;93408;-70
2023/03/29 23:53:48;;;;;;;;;;;16.50;65.90;;;;;;10012846;29;93574;-63
2023/03/29 23:58:50;;;;;;;;;;;16.50;65.90;;;;;;10014629;29;94843;-62
